Time;durP1;ratioP1;P1;durP2;ratioP2;P2;SDS_P1;SDS_P2;PMS_P1;PMS_P2;Temp;Humidity;BMP_temperature;BMP_pressure;BME280_temperature;BME280_humidity;BME280_pressure;Samples;Min_cycle;Max_cycle;Signal;HPM_P1;HPM_P2
2023/06/15 00:01:55;;;;;;;;;;;;;;;16.50;33.74;100818.50;4965314;27;98209;-73
2023/06/15 00:04:21;;;;;;;;;;;;;;;16.50;33.82;100819.31;4966470;27;99025;-74
2023/06/15 00:06:47;;;;;;;;;;;;;;;16.51;33.87;100810.06;4966307;27;98799;-66
2023/06/15 00:09:14;;;;;;;;;;;;;;;16.51;33.83;100810.06;4961983;27;98426;-66
2023/06/15 00:11:43;;;;;;;;;;;;;;;16.51;33.69;100801.09;4967722;27;98036;-66
2023/06/15 00:14:10;;;;;;;;;;;;;;;16.51;33.66;100801.09;4966649;27;98519;-74
2023/06/15 00:16:41;;;;;;;;;;;;;;;16.52;33.69;100802.69;4980713;27;98902;-74
2023/06/15 00:19:08;;;;;;;;;;;;;;;16.51;33.70;100803.81;4974154;27;98667;-74
2023/06/15 00:21:40;;;;;;;;;;;;;;;16.51;33.77;100799.19;4975943;27;98226;-74
2023/06/15 00:24:09;;;;;;;;;;;;;;;16.50;33.70;100794.81;4976816;27;98338;-66
2023/06/15 00:26:36;;;;;;;;;;;;;;;16.49;33.76;100797.84;4970790;27;98010;-74
2023/06/15 00:29:02;;;;;;;;;;;;;;;16.47;33.88;100798.16;4975525;27;98040;-74
2023/06/15 00:31:29;;;;;;;;;;;;;;;16.45;33.86;100798.44;4983205;27;98605;-66
2023/06/15 00:33:56;;;;;;;;;;;;;;;16.43;33.86;100797.94;4975582;27;98021;-66
2023/06/15 00:36:22;;;;;;;;;;;;;;;16.41;33.75;100796.63;4980653;27;98198;-74
2023/06/15 00:38:48;;;;;;;;;;;;;;;16.38;33.76;100789.84;4983030;27;98376;-74
2023/06/15 00:41:15;;;;;;;;;;;;;;;16.38;33.80;100794.50;4968437;27;102063;-74
2023/06/15 00:43:42;;;;;;;;;;;;;;;16.37;33.70;100798.31;4974411;27;98289;-74
2023/06/15 00:46:08;;;;;;;;;;;;;;;16.39;33.76;100802.38;4964242;27;99014;-73
2023/06/15 00:48:36;;;;;;;;;;;;;;;16.39;33.82;100799.66;4979807;27;98263;-74
2023/06/15 00:51:03;;;;;;;;;;;;;;;16.40;33.87;100808.63;4969894;27;98505;-65
2023/06/15 00:53:30;;;;;;;;;;;;;;;16.37;33.73;100801.03;4967752;27;98185;-66
2023/06/15 00:55:57;;;;;;;;;;;;;;;16.36;33.77;100799.44;4969247;27;98164;-73
2023/06/15 00:58:24;;;;;;;;;;;;;;;16.33;34.21;100795.38;4967642;27;98306;-74
2023/06/15 01:00:50;;;;;;;;;;;;;;;16.30;33.90;100797.91;4974685;27;98994;-74
2023/06/15 01:03:20;;;;;;;;;;;;;;;16.25;33.84;100801.50;4961695;27;98224;-66
2023/06/15 01:05:52;;;;;;;;;;;;;;;16.21;34.20;100797.78;4973333;27;98194;-66
2023/06/15 01:08:20;;;;;;;;;;;;;;;16.19;33.82;100795.38;4970448;27;99628;-74
2023/06/15 01:10:46;;;;;;;;;;;;;;;16.15;34.00;100797.06;4967873;27;98091;-65
2023/06/15 01:13:13;;;;;;;;;;;;;;;16.14;33.96;100794.63;4966667;27;98158;-75
2023/06/15 01:15:43;;;;;;;;;;;;;;;16.09;34.01;100794.72;4965597;27;98513;-74
2023/06/15 01:18:09;;;;;;;;;;;;;;;16.07;34.10;100799.63;4970455;27;98015;-74
2023/06/15 01:20:41;;;;;;;;;;;;;;;16.06;33.89;100800.72;4970009;27;99208;-66
2023/06/15 01:23:25;;;;;;;;;;;;;;;16.06;34.10;100796.09;4988396;27;97940;-66
2023/06/15 01:26:11;;;;;;;;;;;;;;;16.08;33.91;100795.81;4984497;27;99236;-75
2023/06/15 01:28:45;;;;;;;;;;;;;;;16.05;34.04;100794.50;4990229;27;98290;-74
2023/06/15 01:31:11;;;;;;;;;;;;;;;16.03;34.11;100795.88;4975210;27;98070;-66
2023/06/15 01:34:04;;;;;;;;;;;;;;;16.02;34.11;100792.34;4982109;27;98758;-66
2023/06/15 01:36:30;;;;;;;;;;;;;;;16.03;34.07;100788.53;4981692;27;99385;-66
2023/06/15 01:38:57;;;;;;;;;;;;;;;16.04;33.96;100792.88;4971776;27;98120;-74
2023/06/15 01:41:25;;;;;;;;;;;;;;;16.06;34.12;100792.56;4979321;27;99752;-66
2023/06/15 01:43:51;;;;;;;;;;;;;;;16.07;33.87;100786.03;4965035;27;98231;-74
2023/06/15 01:46:17;;;;;;;;;;;;;;;16.05;33.99;100783.63;4983441;27;99799;-74
2023/06/15 01:48:43;;;;;;;;;;;;;;;16.04;33.97;100779.28;4981211;27;98267;-74
2023/06/15 01:51:09;;;;;;;;;;;;;;;16.02;34.04;100777.97;4982797;27;99207;-74
2023/06/15 01:53:36;;;;;;;;;;;;;;;15.98;34.03;100779.66;4978309;27;98010;-66
2023/06/15 01:56:02;;;;;;;;;;;;;;;15.92;33.95;100766.16;4979601;27;97921;-66
2023/06/15 01:58:29;;;;;;;;;;;;;;;15.89;34.05;100772.16;4968767;27;98034;-74
2023/06/15 02:00:55;;;;;;;;;;;;;;;15.88;34.29;100778.72;4967616;27;98556;-66
2023/06/15 02:03:21;;;;;;;;;;;;;;;15.88;34.19;100781.44;4966961;27;98650;-74
2023/06/15 02:05:48;;;;;;;;;;;;;;;15.88;34.19;100786.06;4964023;27;98197;-74
2023/06/15 02:08:15;;;;;;;;;;;;;;;15.86;33.96;100786.34;4966605;27;98211;-66
2023/06/15 02:10:42;;;;;;;;;;;;;;;15.83;34.23;100792.38;4986234;27;98449;-66
2023/06/15 02:13:10;;;;;;;;;;;;;;;15.80;34.15;100792.13;4967985;27;99857;-66
2023/06/15 02:15:36;;;;;;;;;;;;;;;15.78;34.31;100795.16;4971234;27;98351;-74
2023/06/15 02:18:04;;;;;;;;;;;;;;;15.77;34.31;100788.13;4972012;27;98129;-66
2023/06/15 02:20:33;;;;;;;;;;;;;;;15.75;34.15;100803.09;4967871;27;99657;-66
2023/06/15 02:22:59;;;;;;;;;;;;;;;15.75;34.04;100787.59;4966481;27;100768;-74
2023/06/15 02:25:27;;;;;;;;;;;;;;;15.76;34.31;100793.81;4979137;27;98098;-66
2023/06/15 02:27:55;;;;;;;;;;;;;;;15.74;34.05;100791.41;4970695;27;98102;-74
2023/06/15 02:30:22;;;;;;;;;;;;;;;15.74;33.98;100794.13;4960536;27;98040;-66
2023/06/15 02:32:48;;;;;;;;;;;;;;;15.74;34.08;100801.47;4967772;27;98979;-74
2023/06/15 02:35:15;;;;;;;;;;;;;;;15.76;34.13;100796.53;4985121;27;98238;-74
2023/06/15 02:37:41;;;;;;;;;;;;;;;15.75;34.11;100792.22;4982499;27;98260;-74
2023/06/15 02:40:08;;;;;;;;;;;;;;;15.75;34.17;100794.94;4962054;27;97944;-66
2023/06/15 02:42:35;;;;;;;;;;;;;;;15.74;33.70;100794.13;4960741;27;98364;-66
2023/06/15 02:45:02;;;;;;;;;;;;;;;15.73;34.22;100799.88;4966116;27;98201;-74
2023/06/15 02:47:29;;;;;;;;;;;;;;;15.71;34.18;100792.81;4996030;27;98278;-66
2023/06/15 02:49:59;;;;;;;;;;;;;;;15.70;34.19;100785.75;4982784;27;98108;-74
2023/06/15 02:52:30;;;;;;;;;;;;;;;15.71;34.08;100783.84;4965584;27;98592;-75
2023/06/15 02:54:57;;;;;;;;;;;;;;;15.70;34.30;100784.97;4968131;27;98138;-74
2023/06/15 02:57:23;;;;;;;;;;;;;;;15.69;34.09;100778.72;4968128;27;99138;-74
2023/06/15 02:59:50;;;;;;;;;;;;;;;15.69;34.34;100788.78;4979484;27;100401;-75
2023/06/15 03:02:20;;;;;;;;;;;;;;;15.69;34.05;100786.88;4980344;27;98052;-66
2023/06/15 03:04:48;;;;;;;;;;;;;;;15.67;34.40;100782.81;4967812;27;98375;-66
2023/06/15 03:07:20;;;;;;;;;;;;;;;15.66;34.22;100770.34;4975136;27;99697;-75
2023/06/15 03:09:53;;;;;;;;;;;;;;;15.63;34.20;100773.59;4977785;27;98481;-75
2023/06/15 03:12:19;;;;;;;;;;;;;;;15.58;34.42;100762.81;4968910;27;99496;-67
2023/06/15 03:14:50;;;;;;;;;;;;;;;15.54;34.57;100757.16;4965501;27;98103;-74
2023/06/15 03:17:17;;;;;;;;;;;;;;;15.51;34.36;100759.66;4965461;27;98090;-74
2023/06/15 03:19:46;;;;;;;;;;;;;;;15.47;34.32;100764.88;4970678;27;99652;-66
2023/06/15 03:22:12;;;;;;;;;;;;;;;15.49;34.46;100767.31;4968924;27;98290;-66
2023/06/15 03:24:39;;;;;;;;;;;;;;;15.50;34.69;100774.34;4985421;27;98040;-75
2023/06/15 03:27:06;;;;;;;;;;;;;;;15.52;34.66;100770.22;4964748;27;98011;-66
2023/06/15 03:29:36;;;;;;;;;;;;;;;15.51;34.58;100779.47;4970717;27;98157;-66
2023/06/15 03:32:07;;;;;;;;;;;;;;;15.52;34.58;100778.38;4979397;27;98706;-66
2023/06/15 03:34:34;;;;;;;;;;;;;;;15.53;34.70;100779.19;4967014;27;98616;-66
2023/06/15 03:37:01;;;;;;;;;;;;;;;15.55;34.59;100776.97;4970795;27;98050;-66
2023/06/15 03:39:27;;;;;;;;;;;;;;;15.54;34.75;100780.81;4967016;27;98617;-74
2023/06/15 03:41:53;;;;;;;;;;;;;;;15.54;34.63;100781.63;4967150;27;99457;-74
2023/06/15 03:44:20;;;;;;;;;;;;;;;15.55;34.85;100790.56;4970264;27;98454;-66
2023/06/15 03:46:47;;;;;;;;;;;;;;;15.57;34.62;100797.34;4964178;27;98070;-73
2023/06/15 03:49:14;;;;;;;;;;;;;;;15.59;34.42;100786.16;4969161;27;98090;-74
2023/06/15 03:51:40;;;;;;;;;;;;;;;15.59;34.56;100786.97;4967618;27;99925;-66
2023/06/15 03:54:07;;;;;;;;;;;;;;;15.62;34.56;100794.53;4975488;27;98980;-74
2023/06/15 03:56:33;;;;;;;;;;;;;;;15.65;34.42;100793.19;4981726;27;97747;-75
2023/06/15 03:58:59;;;;;;;;;;;;;;;15.66;34.46;100795.59;4926454;27;99032;-66
2023/06/15 04:01:26;;;;;;;;;;;;;;;15.66;34.45;100792.88;4974150;27;101883;-75
2023/06/15 04:03:53;;;;;;;;;;;;;;;15.68;34.59;100795.31;4963973;27;99442;-75
2023/06/15 04:06:21;;;;;;;;;;;;;;;15.70;34.49;100784.97;4968875;27;99142;-66
2023/06/15 04:08:47;;;;;;;;;;;;;;;15.73;34.44;100784.38;4961247;27;98618;-75
2023/06/15 04:11:14;;;;;;;;;;;;;;;15.76;34.66;100788.41;4964722;28;98120;-66
2023/06/15 04:13:41;;;;;;;;;;;;;;;15.77;34.67;100790.84;4956218;27;98094;-75
2023/06/15 04:16:07;;;;;;;;;;;;;;;15.81;34.50;100794.59;4962436;27;98074;-75
2023/06/15 04:18:33;;;;;;;;;;;;;;;15.82;34.65;100793.47;4962212;27;98705;-75
2023/06/15 04:21:00;;;;;;;;;;;;;;;15.86;34.66;100793.69;4976573;27;97995;-75
2023/06/15 04:23:26;;;;;;;;;;;;;;;15.89;34.75;100796.63;4978722;27;98527;-66
2023/06/15 04:25:53;;;;;;;;;;;;;;;15.92;34.30;100792.53;4966238;27;99151;-74
2023/06/15 04:28:20;;;;;;;;;;;;;;;15.95;34.36;100792.75;4979179;27;98794;-75
2023/06/15 04:31:05;;;;;;;;;;;;;;;16.02;34.57;100786.13;4967509;27;97969;-66
2023/06/15 04:33:32;;;;;;;;;;;;;;;16.09;34.32;100778.41;4970004;27;98403;-68
2023/06/15 04:36:01;;;;;;;;;;;;;;;16.14;34.37;100776.38;4981072;27;98558;-66
2023/06/15 04:38:29;;;;;;;;;;;;;;;16.20;34.33;100779.84;4968085;27;98131;-67
2023/06/15 04:40:56;;;;;;;;;;;;;;;16.25;34.60;100785.19;4969894;27;98650;-66
2023/06/15 04:43:22;;;;;;;;;;;;;;;16.33;34.58;100778.28;4975154;27;98607;-75
2023/06/15 04:45:48;;;;;;;;;;;;;;;16.37;34.32;100782.00;4962324;27;98269;-66
2023/06/15 04:48:17;;;;;;;;;;;;;;;16.43;34.31;100791.72;4967338;27;98083;-75
2023/06/15 04:50:48;;;;;;;;;;;;;;;16.49;34.27;100787.78;4968662;27;98342;-66
2023/06/15 04:53:16;;;;;;;;;;;;;;;16.55;34.31;100788.50;4966871;27;98881;-66
2023/06/15 04:55:43;;;;;;;;;;;;;;;16.58;34.19;100791.41;4978466;27;98142;-66
2023/06/15 04:58:09;;;;;;;;;;;;;;;16.64;34.24;100803.84;4961011;27;99113;-75
2023/06/15 05:00:36;;;;;;;;;;;;;;;16.71;34.24;100795.28;4966428;27;98008;-76
2023/06/15 05:03:02;;;;;;;;;;;;;;;16.80;34.41;100809.03;4967623;27;98354;-66
2023/06/15 05:05:29;;;;;;;;;;;;;;;16.87;34.24;100815.69;4972657;27;98157;-66
2023/06/15 05:07:55;;;;;;;;;;;;;;;16.96;34.19;100810.34;4957496;27;98501;-74
2023/06/15 05:10:22;;;;;;;;;;;;;;;17.08;34.08;100818.81;4961444;27;98710;-68
2023/06/15 05:12:48;;;;;;;;;;;;;;;17.23;34.08;100816.91;4967402;27;99100;-66
2023/06/15 05:15:15;;;;;;;;;;;;;;;17.40;34.04;100815.19;4958491;27;98278;-75
2023/06/15 05:17:42;;;;;;;;;;;;;;;17.59;33.84;100817.78;4967490;27;98033;-74
2023/06/15 05:20:09;;;;;;;;;;;;;;;17.79;33.87;100805.66;4961330;27;100451;-75
2023/06/15 05:22:35;;;;;;;;;;;;;;;17.98;33.71;100808.22;4966781;27;98306;-66
2023/06/15 05:25:03;;;;;;;;;;;;;;;18.19;33.78;100807.72;4956604;27;97971;-74
2023/06/15 05:27:29;;;;;;;;;;;;;;;18.30;33.57;100812.63;4964801;27;98182;-75
2023/06/15 05:29:56;;;;;;;;;;;;;;;18.40;33.79;100809.66;4964945;27;98258;-66
2023/06/15 05:32:23;;;;;;;;;;;;;;;18.62;33.54;100797.88;4966438;27;98296;-74
2023/06/15 05:34:50;;;;;;;;;;;;;;;19.12;33.12;100803.13;4959488;27;98202;-74
2023/06/15 05:37:17;;;;;;;;;;;;;;;19.58;32.80;100798.25;4979446;27;99250;-66
2023/06/15 05:39:44;;;;;;;;;;;;;;;19.66;33.03;100799.41;4963205;27;99097;-66
2023/06/15 05:42:10;;;;;;;;;;;;;;;19.80;33.01;100798.13;4962617;27;98185;-66
2023/06/15 05:44:37;;;;;;;;;;;;;;;20.07;32.91;100799.72;4981359;27;98554;-75
2023/06/15 05:47:04;;;;;;;;;;;;;;;20.62;32.82;100803.69;4965995;27;97967;-66
2023/06/15 05:49:29;;;;;;;;;;;;;;;20.92;32.76;100809.25;4979131;27;98012;-66
2023/06/15 05:51:56;;;;;;;;;;;;;;;21.03;32.77;100808.53;4961866;27;98081;-74
2023/06/15 05:54:23;;;;;;;;;;;;;;;21.07;32.91;100809.50;4964650;27;98263;-75
2023/06/15 05:56:50;;;;;;;;;;;;;;;21.12;33.03;100803.00;4978194;27;98706;-66
2023/06/15 05:59:17;;;;;;;;;;;;;;;21.18;33.01;100806.34;4964276;27;98475;-66
2023/06/15 06:01:44;;;;;;;;;;;;;;;21.23;33.15;100800.72;4961914;27;98091;-73
2023/06/15 06:04:10;;;;;;;;;;;;;;;21.29;33.11;100815.81;4965453;27;98745;-75
2023/06/15 06:06:37;;;;;;;;;;;;;;;21.30;33.08;100812.75;4966694;27;99565;-75
2023/06/15 06:09:03;;;;;;;;;;;;;;;21.33;33.09;100814.84;4985924;27;98905;-66
2023/06/15 06:11:30;;;;;;;;;;;;;;;21.45;33.18;100813.34;4973275;27;97981;-66
2023/06/15 06:13:56;;;;;;;;;;;;;;;21.67;32.94;100813.03;4967341;27;98917;-75
2023/06/15 06:16:22;;;;;;;;;;;;;;;22.01;32.74;100817.44;4967611;27;98044;-66
2023/06/15 06:18:50;;;;;;;;;;;;;;;22.26;32.62;100817.56;4968331;27;100372;-75
2023/06/15 06:21:17;;;;;;;;;;;;;;;23.31;31.90;100817.22;4968862;27;97925;-66
2023/06/15 06:23:44;;;;;;;;;;;;;;;24.06;31.83;100816.72;4963255;27;98305;-75
2023/06/15 06:26:11;;;;;;;;;;;;;;;26.24;30.46;100820.03;4965010;27;97975;-66
2023/06/15 06:28:37;;;;;;;;;;;;;;;26.95;30.30;100817.78;4968148;27;98240;-66
2023/06/15 06:31:04;;;;;;;;;;;;;;;26.97;30.71;100820.97;4969332;27;98134;-66
2023/06/15 06:33:31;;;;;;;;;;;;;;;27.73;30.47;100817.38;4964111;27;98118;-75
2023/06/15 06:35:58;;;;;;;;;;;;;;;27.72;30.59;100821.31;4966757;27;97940;-66
2023/06/15 06:38:25;;;;;;;;;;;;;;;27.52;30.94;100824.22;4966569;27;98036;-75
2023/06/15 06:40:51;;;;;;;;;;;;;;;27.69;31.13;100822.06;4972902;27;98329;-66
2023/06/15 06:43:18;;;;;;;;;;;;;;;28.12;30.60;100820.66;4966507;27;98680;-74
2023/06/15 06:45:45;;;;;;;;;;;;;;;28.45;30.63;100819.84;4967836;27;98112;-66
2023/06/15 06:48:11;;;;;;;;;;;;;;;28.44;31.04;100815.50;4977927;27;98455;-75
2023/06/15 06:50:39;;;;;;;;;;;;;;;28.24;31.01;100817.63;4969792;27;97993;-75
2023/06/15 06:53:05;;;;;;;;;;;;;;;28.12;31.42;100812.34;4972093;27;98124;-66
2023/06/15 06:55:33;;;;;;;;;;;;;;;28.00;31.47;100816.16;4962443;27;99384;-74
2023/06/15 06:58:01;;;;;;;;;;;;;;;27.91;31.47;100817.66;4964453;27;98034;-66
2023/06/15 07:00:30;;;;;;;;;;;;;;;27.89;31.25;100813.25;4983779;27;97968;-74
2023/06/15 07:02:58;;;;;;;;;;;;;;;27.73;31.53;100812.63;4964691;27;98199;-67
2023/06/15 07:05:25;;;;;;;;;;;;;;;27.69;31.74;100814.56;4970716;27;98188;-67
2023/06/15 07:07:51;;;;;;;;;;;;;;;27.74;31.68;100807.91;4964713;27;98729;-74
2023/06/15 07:10:17;;;;;;;;;;;;;;;28.22;31.33;100811.69;4968836;27;98154;-67
2023/06/15 07:12:43;;;;;;;;;;;;;;;29.09;30.60;100801.03;4964159;27;98270;-67
2023/06/15 07:15:10;;;;;;;;;;;;;;;29.49;30.22;100812.38;4963457;27;98121;-67
2023/06/15 07:17:37;;;;;;;;;;;;;;;29.43;30.50;100811.16;4984273;27;98135;-66
2023/06/15 07:20:03;;;;;;;;;;;;;;;29.43;30.70;100809.16;4968928;27;98506;-75
2023/06/15 07:22:29;;;;;;;;;;;;;;;29.43;30.90;100806.38;4972245;27;98276;-67
2023/06/15 07:24:56;;;;;;;;;;;;;;;29.53;30.93;100807.66;4967713;27;98058;-67
2023/06/15 07:27:22;;;;;;;;;;;;;;;29.48;30.75;100810.81;4978742;27;98019;-73
2023/06/15 07:29:49;;;;;;;;;;;;;;;29.41;30.95;100811.56;4967393;27;98155;-74
2023/06/15 07:32:15;;;;;;;;;;;;;;;29.52;30.98;100803.28;4966439;27;98240;-75
2023/06/15 07:34:42;;;;;;;;;;;;;;;29.35;31.16;100807.53;4971649;27;98304;-74
2023/06/15 07:37:09;;;;;;;;;;;;;;;29.26;31.36;100804.31;4971189;27;98290;-74
2023/06/15 07:39:36;;;;;;;;;;;;;;;29.18;31.36;100800.69;4974032;27;98302;-67
2023/06/15 07:42:02;;;;;;;;;;;;;;;29.02;31.38;100806.53;4973575;27;97914;-67
2023/06/15 07:44:29;;;;;;;;;;;;;;;29.02;31.18;100797.41;4970532;27;98711;-67
2023/06/15 07:46:55;;;;;;;;;;;;;;;29.03;31.47;100794.25;4966151;27;98339;-74
2023/06/15 07:49:22;;;;;;;;;;;;;;;28.85;31.31;100805.19;4966455;27;99617;-74
2023/06/15 07:51:49;;;;;;;;;;;;;;;28.60;31.86;100796.63;4965208;27;100045;-74
2023/06/15 07:54:16;;;;;;;;;;;;;;;28.52;31.56;100800.53;4964916;27;98294;-74
2023/06/15 07:56:45;;;;;;;;;;;;;;;28.42;31.53;100792.91;4966557;27;98496;-67
2023/06/15 07:59:11;;;;;;;;;;;;;;;29.19;31.23;100799.50;4976623;27;98014;-67
2023/06/15 08:01:37;;;;;;;;;;;;;;;30.75;29.75;100801.34;4962629;27;98520;-67
2023/06/15 08:04:04;;;;;;;;;;;;;;;31.63;29.45;100798.81;4967074;27;98256;-74
2023/06/15 08:06:31;;;;;;;;;;;;;;;32.62;28.75;100798.72;4969276;27;98000;-67
2023/06/15 08:08:58;;;;;;;;;;;;;;;33.52;28.78;100807.09;4963264;27;98913;-67
2023/06/15 08:11:26;;;;;;;;;;;;;;;34.67;28.26;100801.59;4966459;27;98055;-74
2023/06/15 08:13:52;;;;;;;;;;;;;;;35.25;27.87;100802.16;4964790;27;98390;-70
2023/06/15 08:16:18;;;;;;;;;;;;;;;34.99;28.35;100801.06;4966981;27;98573;-67
2023/06/15 08:18:45;;;;;;;;;;;;;;;34.83;28.75;100790.50;4984525;27;99128;-74
2023/06/15 08:21:12;;;;;;;;;;;;;;;35.21;28.47;100789.47;4980037;27;98239;-74
2023/06/15 08:23:40;;;;;;;;;;;;;;;35.18;28.57;100788.31;4960059;27;99466;-68
2023/06/15 08:26:06;;;;;;;;;;;;;;;33.96;30.06;100787.41;4969492;27;98204;-68
2023/06/15 08:28:33;;;;;;;;;;;;;;;32.92;30.33;100779.34;4959701;27;98241;-74
2023/06/15 08:30:59;;;;;;;;;;;;;;;32.10;30.90;100782.72;4968861;27;98059;-74
2023/06/15 08:33:25;;;;;;;;;;;;;;;31.39;31.47;100777.44;4981586;27;98189;-67
2023/06/15 08:35:51;;;;;;;;;;;;;;;30.83;31.90;100779.09;4994293;27;98864;-73
2023/06/15 08:38:18;;;;;;;;;;;;;;;30.46;31.91;100775.47;4962768;27;99522;-73
2023/06/15 08:40:45;;;;;;;;;;;;;;;30.43;31.53;100778.25;4967184;27;98136;-72
2023/06/15 08:43:12;;;;;;;;;;;;;;;30.27;31.44;100782.19;4963820;27;99863;-71
2023/06/15 08:45:41;;;;;;;;;;;;;;;30.35;31.28;100779.44;4980499;27;98508;-74
2023/06/15 08:48:09;;;;;;;;;;;;;;;30.72;31.04;100776.28;4979625;27;98014;-67
2023/06/15 08:50:38;;;;;;;;;;;;;;;30.89;30.81;100774.69;4968979;27;98596;-73
2023/06/15 08:53:08;;;;;;;;;;;;;;;31.17;30.63;100771.91;4971249;27;98588;-68
2023/06/15 08:55:36;;;;;;;;;;;;;;;31.60;30.18;100770.97;4981596;27;98828;-73
2023/06/15 08:58:07;;;;;;;;;;;;;;;32.04;29.98;100767.63;4970026;27;98110;-73
2023/06/15 09:00:34;;;;;;;;;;;;;;;32.48;29.51;100768.97;4991367;27;98002;-66
2023/06/15 09:03:01;;;;;;;;;;;;;;;32.93;29.40;100769.00;4963533;27;98115;-73
2023/06/15 09:05:28;;;;;;;;;;;;;;;32.80;29.55;100777.06;4969760;27;98144;-73
2023/06/15 09:07:54;;;;;;;;;;;;;;;32.20;30.42;100775.50;4965694;27;98421;-72
2023/06/15 09:10:21;;;;;;;;;;;;;;;31.74;30.91;100768.94;4968051;27;98209;-66
2023/06/15 09:12:57;;;;;;;;;;;;;;;31.51;30.65;100775.00;4968058;27;98357;-66
2023/06/15 09:15:28;;;;;;;;;;;;;;;31.81;30.69;100768.13;4971420;27;98150;-66
2023/06/15 09:17:56;;;;;;;;;;;;;;;32.31;30.03;100770.66;5002562;27;98103;-73
2023/06/15 09:20:24;;;;;;;;;;;;;;;32.49;29.74;100771.31;4968933;27;98261;-72
2023/06/15 09:22:51;;;;;;;;;;;;;;;32.37;30.29;100771.78;4971485;27;97966;-73
2023/06/15 09:25:21;;;;;;;;;;;;;;;31.99;30.45;100765.25;4991499;27;97897;-66
2023/06/15 09:27:58;;;;;;;;;;;;;;;32.81;29.66;100755.53;4971592;27;99233;-66
2023/06/15 09:30:37;;;;;;;;;;;;;;;32.18;30.51;100769.53;4980647;27;98157;-73
2023/06/15 09:33:17;;;;;;;;;;;;;;;33.83;29.10;100755.63;4970659;27;97941;-72
2023/06/15 09:35:56;;;;;;;;;;;;;;;35.14;27.93;100756.78;4989355;27;98833;-74
2023/06/15 09:38:23;;;;;;;;;;;;;;;36.81;27.20;100755.09;4994953;27;99638;-72
2023/06/15 09:40:49;;;;;;;;;;;;;;;37.50;26.78;100752.03;4970794;27;98394;-73
2023/06/15 09:43:18;;;;;;;;;;;;;;;38.28;26.51;100757.28;4962617;27;98513;-72
2023/06/15 09:45:51;;;;;;;;;;;;;;;39.30;26.10;100749.81;4967838;27;98949;-66
2023/06/15 09:48:18;;;;;;;;;;;;;;;40.23;25.80;100742.19;4984737;27;98988;-66
2023/06/15 09:50:48;;;;;;;;;;;;;;;41.21;25.57;100736.81;4986373;27;98091;-67
2023/06/15 09:53:14;;;;;;;;;;;;;;;42.08;25.15;100735.16;4969217;27;98076;-73
2023/06/15 09:55:43;;;;;;;;;;;;;;;42.84;25.11;100735.81;4982120;27;109118;-67
2023/06/15 09:58:10;;;;;;;;;;;;;;;43.55;24.85;100721.94;4966818;27;98798;-67
2023/06/15 10:00:37;;;;;;;;;;;;;;;43.98;25.05;100728.81;4969169;27;98234;-72
2023/06/15 10:03:08;;;;;;;;;;;;;;;44.18;25.21;100725.22;4968441;27;97949;-66
2023/06/15 10:05:36;;;;;;;;;;;;;;;44.47;24.78;100709.34;4958026;27;98586;-72
2023/06/15 10:08:05;;;;;;;;;;;;;;;44.64;25.01;100718.84;4959168;27;99186;-73
2023/06/15 10:10:32;;;;;;;;;;;;;;;44.80;25.07;100709.75;4981989;27;98493;-73
2023/06/15 10:13:00;;;;;;;;;;;;;;;45.04;25.26;100703.84;4978799;27;98217;-66
2023/06/15 10:15:28;;;;;;;;;;;;;;;45.39;24.98;100699.22;4967930;27;98212;-73
2023/06/15 10:17:56;;;;;;;;;;;;;;;45.52;25.38;100697.56;4961469;27;97991;-66
2023/06/15 10:20:27;;;;;;;;;;;;;;;45.72;25.28;100693.81;4969493;27;98113;-73
2023/06/15 10:23:07;;;;;;;;;;;;;;;45.78;25.10;100696.69;4973057;27;98063;-68
2023/06/15 10:25:36;;;;;;;;;;;;;;;45.79;25.24;100684.81;4978354;27;117296;-73
2023/06/15 10:28:09;;;;;;;;;;;;;;;45.81;25.51;100681.50;4969034;27;98341;-73
2023/06/15 10:30:55;;;;;;;;;;;;;;;45.83;25.79;100678.94;4968717;27;100265;-66
2023/06/15 10:33:33;;;;;;;;;;;;;;;45.85;25.56;100675.56;4973439;27;99955;-73
2023/06/15 10:36:12;;;;;;;;;;;;;;;45.91;25.57;100679.22;4985796;27;98067;-73
2023/06/15 10:38:54;;;;;;;;;;;;;;;45.90;25.76;100671.97;4976258;27;98273;-64
2023/06/15 10:41:21;;;;;;;;;;;;;;;45.94;25.31;100676.13;4966829;27;98681;-71
2023/06/15 10:44:00;;;;;;;;;;;;;;;46.08;25.63;100668.69;4964201;27;98573;-66
2023/06/15 10:46:28;;;;;;;;;;;;;;;46.16;25.69;100666.91;4965961;27;99884;-71
2023/06/15 10:48:55;;;;;;;;;;;;;;;46.02;25.71;100665.03;4966751;27;98189;-71
2023/06/15 10:51:21;;;;;;;;;;;;;;;46.20;25.19;100658.16;4967237;27;98680;-68
2023/06/15 10:53:48;;;;;;;;;;;;;;;46.20;25.42;100661.00;4978927;27;98160;-71
2023/06/15 10:56:23;;;;;;;;;;;;;;;42.92;27.94;100647.59;4964484;27;98366;-64
2023/06/15 10:59:04;;;;;;;;;;;;;;;43.43;27.04;100649.25;4973861;27;98201;-64
2023/06/15 11:01:32;;;;;;;;;;;;;;;44.27;26.18;100659.03;4966864;27;98458;-72
2023/06/15 11:04:01;;;;;;;;;;;;;;;44.42;25.93;100656.13;4967862;27;98195;-65
2023/06/15 11:06:36;;;;;;;;;;;;;;;44.39;25.76;100655.06;4986824;27;97843;-64
2023/06/15 11:09:24;;;;;;;;;;;;;;;44.55;26.06;100640.25;4988058;27;98321;-69
2023/06/15 11:11:51;;;;;;;;;;;;;;;44.61;25.93;100650.88;4985500;27;100618;-71
2023/06/15 11:14:21;;;;;;;;;;;;;;;44.71;25.65;100646.66;4972259;27;98263;-65
2023/06/15 11:17:01;;;;;;;;;;;;;;;43.80;26.33;100641.06;4967725;27;98376;-66
2023/06/15 11:19:28;;;;;;;;;;;;;;;40.77;28.62;100632.63;4967510;27;98325;-66
2023/06/15 11:21:59;;;;;;;;;;;;;;;39.12;29.84;100632.16;4969081;27;98116;-66
2023/06/15 11:24:36;;;;;;;;;;;;;;;37.86;30.12;100620.84;4987356;27;97985;-74
2023/06/15 11:27:08;;;;;;;;;;;;;;;40.06;27.85;100632.88;4970061;27;98154;-72
2023/06/15 11:29:41;;;;;;;;;;;;;;;40.90;27.15;100624.75;4971165;27;98085;-73
2023/06/15 11:32:12;;;;;;;;;;;;;;;41.36;27.17;100623.88;4970055;27;98396;-66
2023/06/15 11:34:40;;;;;;;;;;;;;;;41.00;27.31;100619.91;4985234;27;98002;-73
2023/06/15 11:37:12;;;;;;;;;;;;;;;41.32;26.99;100624.06;4966057;27;98051;-67
2023/06/15 11:39:41;;;;;;;;;;;;;;;40.90;27.45;100629.63;4972949;27;98233;-73
2023/06/15 11:42:08;;;;;;;;;;;;;;;38.85;28.50;100613.81;4966503;27;98631;-67
2023/06/15 11:44:34;;;;;;;;;;;;;;;37.42;29.67;100607.38;4965140;27;98048;-74
2023/06/15 11:47:01;;;;;;;;;;;;;;;36.39;30.22;100616.63;4964389;27;98036;-66
2023/06/15 11:49:38;;;;;;;;;;;;;;;36.03;30.05;100613.97;4972132;27;98732;-69
2023/06/15 11:52:04;;;;;;;;;;;;;;;36.79;29.17;100608.78;4970603;27;99181;-66
2023/06/15 11:54:31;;;;;;;;;;;;;;;37.26;28.74;100599.00;4963308;27;98466;-64
2023/06/15 11:56:58;;;;;;;;;;;;;;;37.73;28.34;100606.78;4968981;27;100290;-73
2023/06/15 11:59:25;;;;;;;;;;;;;;;37.72;28.53;100597.56;4958396;27;98388;-73
2023/06/15 12:01:54;;;;;;;;;;;;;;;37.50;28.68;100593.88;4960700;27;97952;-70
2023/06/15 12:04:21;;;;;;;;;;;;;;;37.08;28.90;100602.34;4964227;27;98203;-73
2023/06/15 12:06:48;;;;;;;;;;;;;;;35.86;29.61;100605.53;4978211;27;98016;-73
2023/06/15 12:09:18;;;;;;;;;;;;;;;35.01;29.96;100611.03;4961986;27;98408;-74
2023/06/15 12:11:45;;;;;;;;;;;;;;;34.30;30.53;100599.16;4965346;27;98431;-73
2023/06/15 12:14:16;;;;;;;;;;;;;;;33.94;30.32;100602.53;4969364;27;98049;-66
2023/06/15 12:16:48;;;;;;;;;;;;;;;33.35;30.37;100602.22;4983045;27;97930;-66
2023/06/15 12:19:14;;;;;;;;;;;;;;;32.75;30.81;100598.94;4961259;27;98231;-72
2023/06/15 12:21:41;;;;;;;;;;;;;;;32.15;30.87;100600.34;4969828;27;98086;-66
2023/06/15 12:24:18;;;;;;;;;;;;;;;31.59;31.14;100596.72;4968912;27;98024;-72
2023/06/15 12:26:57;;;;;;;;;;;;;;;31.12;30.97;100601.72;4965092;27;98162;-73
2023/06/15 12:29:25;;;;;;;;;;;;;;;30.75;31.06;100591.94;4970719;27;98245;-73
2023/06/15 12:31:53;;;;;;;;;;;;;;;30.47;31.06;100601.09;4968894;27;98071;-72
2023/06/15 12:34:24;;;;;;;;;;;;;;;30.39;31.45;100600.31;4974216;27;98675;-66
2023/06/15 12:36:51;;;;;;;;;;;;;;;30.66;30.48;100595.13;4962319;27;98386;-66
2023/06/15 12:39:18;;;;;;;;;;;;;;;31.96;29.32;100596.91;4967902;27;99322;-66
2023/06/15 12:41:44;;;;;;;;;;;;;;;32.69;28.89;100600.59;4973183;27;97940;-73